QTR836 OTHH-VTBS
Flight info
| Callsign | QTR836 |
|---|---|
| Flight time | 3h 34m |
| Altitude | 35000 |
| Route | KUPRO N300 NOLSU P307 PURNI/N0497F370 P307 VAXIM L301 KARKU M638 EXOLU L505 BUSBO L301 DOGEM/N0491F390 L301 DWI L877 MIGAR L524 IBETO DCT WILLA WILLA1D |
| Aircraft | A35K/H-SDE2E3GHIJ3J4J5LM1ORWXY/LB1D1 |
Departure
| Time | 2026-05-07 05:26 |
|---|---|
| Airport | Hamad International Airport (OTHH) |
Arrival
| Time | 2026-05-07 09:00 |
|---|---|
| Airport | Suvarnabhumi Airport (VTBS) |
| Time | Latitude | Longitude | Altitude | Speed | Heading |
|---|---|---|---|---|---|
| 2026-05-07 04:50 | 25.26471 | 51.61317 | 13 ft | 0 kts | 248° |
| 2026-05-07 05:17 | 25.26475 | 51.61329 | 28 ft | 2 kts | 245° |
| 2026-05-07 05:18 | 25.26482 | 51.61345 | 12 ft | 2 kts | 245° |
| 2026-05-07 05:18 | 25.26489 | 51.61362 | 3 ft | 2 kts | 241° |
| 2026-05-07 05:18 | 25.26498 | 51.61377 | 35 ft | 2 kts | 233° |
| 2026-05-07 05:18 | 25.26505 | 51.61386 | 29 ft | 2 kts | 223° |
| 2026-05-07 05:19 | 25.26519 | 51.61395 | 25 ft | 2 kts | 182° |
| 2026-05-07 05:19 | 25.26532 | 51.61393 | 26 ft | 1 kts | 160° |
| 2026-05-07 05:19 | 25.26533 | 51.61393 | 26 ft | 0 kts | 160° |
| 2026-05-07 05:21 | 25.26423 | 51.61443 | 28 ft | 18 kts | 151° |
| 2026-05-07 05:21 | 25.26413 | 51.61560 | 28 ft | 18 kts | 70° |
| 2026-05-07 05:22 | 25.26467 | 51.61711 | 28 ft | 23 kts | 69° |
| 2026-05-07 05:22 | 25.26507 | 51.61822 | 28 ft | 24 kts | 66° |
| 2026-05-07 05:22 | 25.26472 | 51.61958 | 28 ft | 22 kts | 156° |
| 2026-05-07 05:22 | 25.26327 | 51.62025 | 28 ft | 24 kts | 158° |
| 2026-05-07 05:23 | 25.26169 | 51.62096 | 29 ft | 25 kts | 158° |
| 2026-05-07 05:23 | 25.25984 | 51.62176 | 29 ft | 33 kts | 158° |
| 2026-05-07 05:23 | 25.25760 | 51.62274 | 28 ft | 37 kts | 158° |
| 2026-05-07 05:23 | 25.25522 | 51.62387 | 28 ft | 37 kts | 152° |
| 2026-05-07 05:24 | 25.25485 | 51.62480 | 28 ft | 8 kts | 69° |
| 2026-05-07 05:24 | 25.25523 | 51.62568 | 28 ft | 16 kts | 65° |
| 2026-05-07 05:24 | 25.25584 | 51.62658 | 29 ft | 9 kts | 12° |
| 2026-05-07 05:24 | 25.25614 | 51.62648 | 29 ft | 0 kts | 339° |
| 2026-05-07 05:25 | 25.25636 | 51.62638 | 29 ft | 15 kts | 338° |
| 2026-05-07 05:25 | 25.25982 | 51.62487 | 29 ft | 90 kts | 338° |
| 2026-05-07 05:25 | 25.26773 | 51.62137 | 27 ft | 153 kts | 339° |
| 2026-05-07 05:25 | 25.27896 | 51.61644 | 251 ft | 189 kts | 339° |
| 2026-05-07 05:26 | 25.29099 | 51.61108 | 1160 ft | 180 kts | 340° |
| 2026-05-07 05:26 | 25.30265 | 51.60601 | 1877 ft | 184 kts | 342° |
| 2026-05-07 05:26 | 25.31532 | 51.60064 | 2163 ft | 204 kts | 341° |
| 2026-05-07 05:26 | 25.32887 | 51.59476 | 2639 ft | 213 kts | 341° |
| 2026-05-07 05:27 | 25.34335 | 51.59216 | 3175 ft | 214 kts | 10° |
| 2026-05-07 05:27 | 25.35602 | 51.60052 | 3687 ft | 219 kts | 49° |
| 2026-05-07 05:27 | 25.36119 | 51.61632 | 3947 ft | 226 kts | 86° |
| 2026-05-07 05:27 | 25.35956 | 51.63355 | 3992 ft | 227 kts | 94° |
| 2026-05-07 05:28 | 25.35910 | 51.65107 | 3994 ft | 227 kts | 84° |
| 2026-05-07 05:28 | 25.36127 | 51.66826 | 3992 ft | 226 kts | 76° |
| 2026-05-07 05:28 | 25.36519 | 51.68504 | 3992 ft | 225 kts | 71° |
| 2026-05-07 05:28 | 25.36820 | 51.70208 | 3986 ft | 228 kts | 85° |
| 2026-05-07 05:29 | 25.36621 | 51.71984 | 3996 ft | 238 kts | 100° |
| 2026-05-07 05:29 | 25.36237 | 51.73771 | 3992 ft | 240 kts | 101° |
| 2026-05-07 05:29 | 25.35843 | 51.75567 | 3990 ft | 240 kts | 101° |
| 2026-05-07 05:29 | 25.35458 | 51.77387 | 3973 ft | 252 kts | 101° |
| 2026-05-07 05:30 | 25.35057 | 51.79354 | 3968 ft | 270 kts | 101° |
| 2026-05-07 05:30 | 25.34643 | 51.81404 | 3985 ft | 274 kts | 100° |
| 2026-05-07 05:30 | 25.34230 | 51.83457 | 3990 ft | 274 kts | 100° |
| 2026-05-07 05:30 | 25.33818 | 51.85514 | 3994 ft | 274 kts | 101° |
| 2026-05-07 05:31 | 25.33412 | 51.87565 | 4147 ft | 274 kts | 100° |
| 2026-05-07 05:31 | 25.32998 | 51.89642 | 4741 ft | 278 kts | 101° |
| 2026-05-07 05:31 | 25.32576 | 51.91726 | 5565 ft | 278 kts | 101° |
| 2026-05-07 05:31 | 25.32154 | 51.93812 | 6320 ft | 280 kts | 101° |
| 2026-05-07 05:32 | 25.31730 | 51.95922 | 7025 ft | 283 kts | 101° |
| 2026-05-07 05:32 | 25.31303 | 51.98051 | 7760 ft | 285 kts | 101° |
| 2026-05-07 05:32 | 25.30872 | 52.00203 | 8524 ft | 288 kts | 101° |
| 2026-05-07 05:32 | 25.30437 | 52.02374 | 9314 ft | 291 kts | 101° |
| 2026-05-07 05:33 | 25.30003 | 52.04542 | 10071 ft | 294 kts | 102° |
| 2026-05-07 05:33 | 25.29554 | 52.06778 | 10690 ft | 303 kts | 102° |
| 2026-05-07 05:33 | 25.29080 | 52.09072 | 11387 ft | 308 kts | 104° |
| 2026-05-07 05:33 | 25.28447 | 52.11341 | 12205 ft | 310 kts | 108° |
| 2026-05-07 05:34 | 25.27738 | 52.13597 | 13056 ft | 312 kts | 109° |
| 2026-05-07 05:34 | 25.27017 | 52.15866 | 13859 ft | 314 kts | 109° |
| 2026-05-07 05:34 | 25.26292 | 52.18156 | 14566 ft | 318 kts | 109° |
| 2026-05-07 05:34 | 25.25555 | 52.20488 | 15118 ft | 327 kts | 109° |
| 2026-05-07 05:35 | 25.24786 | 52.22923 | 15439 ft | 345 kts | 109° |
| 2026-05-07 05:35 | 25.23975 | 52.25490 | 15715 ft | 361 kts | 109° |
| 2026-05-07 05:35 | 25.23131 | 52.28161 | 15987 ft | 376 kts | 110° |
| 2026-05-07 05:35 | 25.22255 | 52.30935 | 16274 ft | 389 kts | 110° |
| 2026-05-07 05:36 | 25.21357 | 52.33778 | 16723 ft | 395 kts | 110° |
| 2026-05-07 05:36 | 25.20444 | 52.36666 | 17241 ft | 400 kts | 110° |
| 2026-05-07 05:36 | 25.19521 | 52.39583 | 17773 ft | 405 kts | 110° |
| 2026-05-07 05:36 | 25.18605 | 52.42487 | 18283 ft | 409 kts | 110° |
| 2026-05-07 05:37 | 25.17648 | 52.45509 | 18745 ft | 413 kts | 110° |
| 2026-05-07 05:37 | 25.16693 | 52.48516 | 19220 ft | 417 kts | 110° |
| 2026-05-07 05:37 | 25.15728 | 52.51551 | 19701 ft | 421 kts | 110° |
| 2026-05-07 05:37 | 25.14754 | 52.54616 | 20182 ft | 425 kts | 110° |
| 2026-05-07 05:38 | 25.13772 | 52.57670 | 20668 ft | 429 kts | 111° |
| 2026-05-07 05:38 | 25.12605 | 52.60720 | 21146 ft | 433 kts | 115° |
| 2026-05-07 05:38 | 25.11302 | 52.63732 | 21644 ft | 437 kts | 117° |
| 2026-05-07 05:38 | 25.09928 | 52.66737 | 22131 ft | 441 kts | 118° |
| 2026-05-07 05:39 | 25.08517 | 52.69762 | 22608 ft | 445 kts | 118° |
| 2026-05-07 05:39 | 25.07098 | 52.72807 | 23075 ft | 450 kts | 118° |
| 2026-05-07 05:39 | 25.05806 | 52.75976 | 23523 ft | 455 kts | 110° |
| 2026-05-07 05:39 | 25.04849 | 52.79313 | 23916 ft | 459 kts | 107° |
| 2026-05-07 05:40 | 25.03998 | 52.82731 | 24328 ft | 464 kts | 105° |
| 2026-05-07 05:40 | 25.03202 | 52.86191 | 24746 ft | 468 kts | 105° |
| 2026-05-07 05:40 | 25.02425 | 52.89697 | 25179 ft | 473 kts | 105° |
| 2026-05-07 05:40 | 25.01657 | 52.93190 | 25620 ft | 477 kts | 105° |
| 2026-05-07 05:41 | 25.00868 | 52.96758 | 26057 ft | 481 kts | 105° |
| 2026-05-07 05:41 | 25.00065 | 53.00354 | 26510 ft | 485 kts | 105° |
| 2026-05-07 05:41 | 24.99247 | 53.03986 | 26966 ft | 490 kts | 106° |
| 2026-05-07 05:41 | 24.98418 | 53.07647 | 27411 ft | 494 kts | 106° |
| 2026-05-07 05:42 | 24.97581 | 53.11323 | 27852 ft | 499 kts | 106° |
| 2026-05-07 05:42 | 24.96721 | 53.15060 | 28313 ft | 503 kts | 107° |
| 2026-05-07 05:42 | 24.95855 | 53.18808 | 28750 ft | 507 kts | 107° |
| 2026-05-07 05:42 | 24.94979 | 53.22592 | 29182 ft | 511 kts | 107° |
| 2026-05-07 05:43 | 24.94097 | 53.26402 | 29592 ft | 515 kts | 107° |
| 2026-05-07 05:43 | 24.93207 | 53.30247 | 29999 ft | 520 kts | 107° |
| 2026-05-07 05:43 | 24.92311 | 53.34116 | 30335 ft | 523 kts | 107° |
| 2026-05-07 05:43 | 24.91409 | 53.38010 | 30684 ft | 526 kts | 107° |
| 2026-05-07 05:44 | 24.90499 | 53.41935 | 31027 ft | 529 kts | 107° |
| 2026-05-07 05:44 | 24.89540 | 53.45855 | 31351 ft | 531 kts | 109° |
| 2026-05-07 05:44 | 24.88483 | 53.49765 | 31671 ft | 534 kts | 110° |
| 2026-05-07 05:44 | 24.87398 | 53.53609 | 31971 ft | 536 kts | 110° |
| 2026-05-07 05:45 | 24.86274 | 53.57560 | 32333 ft | 537 kts | 110° |
| 2026-05-07 05:45 | 24.85167 | 53.61482 | 32815 ft | 537 kts | 110° |
| 2026-05-07 05:45 | 24.84069 | 53.65411 | 33253 ft | 536 kts | 109° |
| 2026-05-07 05:45 | 24.82981 | 53.69339 | 33684 ft | 536 kts | 109° |
| 2026-05-07 05:46 | 24.81897 | 53.73273 | 34064 ft | 535 kts | 109° |
| 2026-05-07 05:46 | 24.80821 | 53.77187 | 34462 ft | 534 kts | 109° |
| 2026-05-07 05:46 | 24.79746 | 53.81100 | 34772 ft | 535 kts | 109° |
| 2026-05-07 05:47 | 24.77595 | 53.88921 | 34866 ft | 533 kts | 109° |
| 2026-05-07 05:47 | 24.75799 | 53.96834 | 34864 ft | 537 kts | 98° |
| 2026-05-07 05:48 | 24.76163 | 54.05033 | 34864 ft | 540 kts | 76° |
| 2026-05-07 05:48 | 24.78220 | 54.12987 | 34861 ft | 541 kts | 72° |
| 2026-05-07 05:49 | 24.80518 | 54.20808 | 34866 ft | 541 kts | 72° |
| 2026-05-07 05:49 | 24.82828 | 54.28702 | 34864 ft | 541 kts | 72° |
| 2026-05-07 05:50 | 24.85094 | 54.36616 | 34863 ft | 541 kts | 73° |
| 2026-05-07 05:50 | 24.87329 | 54.44528 | 34865 ft | 541 kts | 73° |
| 2026-05-07 05:51 | 24.89549 | 54.52397 | 34863 ft | 541 kts | 73° |
| 2026-05-07 05:51 | 24.91781 | 54.60314 | 34864 ft | 541 kts | 73° |
| 2026-05-07 05:52 | 24.93718 | 54.68270 | 34869 ft | 541 kts | 78° |
| 2026-05-07 05:52 | 24.95306 | 54.76422 | 34865 ft | 541 kts | 79° |
| 2026-05-07 05:53 | 24.96822 | 54.84541 | 34868 ft | 541 kts | 79° |
| 2026-05-07 05:53 | 24.98339 | 54.92668 | 34872 ft | 541 kts | 79° |
| 2026-05-07 05:54 | 24.99867 | 55.00786 | 34878 ft | 541 kts | 79° |
| 2026-05-07 05:54 | 25.01282 | 55.08310 | 34879 ft | 541 kts | 79° |
| 2026-05-07 05:55 | 25.02769 | 55.16247 | 34881 ft | 541 kts | 79° |
| 2026-05-07 05:55 | 25.04290 | 55.24374 | 34883 ft | 541 kts | 79° |
| 2026-05-07 05:56 | 25.05799 | 55.32451 | 34881 ft | 541 kts | 79° |
| 2026-05-07 05:56 | 25.07313 | 55.40583 | 34861 ft | 541 kts | 79° |
| 2026-05-07 05:57 | 25.08822 | 55.48717 | 34865 ft | 541 kts | 79° |
| 2026-05-07 05:57 | 25.10338 | 55.56913 | 34861 ft | 541 kts | 79° |
| 2026-05-07 05:58 | 25.11834 | 55.65054 | 34861 ft | 542 kts | 79° |
| 2026-05-07 05:58 | 25.13318 | 55.73143 | 34857 ft | 541 kts | 79° |
| 2026-05-07 05:59 | 25.14842 | 55.81284 | 34858 ft | 542 kts | 78° |
| 2026-05-07 05:59 | 25.16519 | 55.89384 | 34863 ft | 542 kts | 77° |
| 2026-05-07 06:00 | 25.18219 | 55.97484 | 34858 ft | 541 kts | 77° |
| 2026-05-07 06:00 | 25.19886 | 56.05589 | 34832 ft | 541 kts | 78° |
| 2026-05-07 06:01 | 25.20356 | 56.13831 | 34829 ft | 538 kts | 98° |
| 2026-05-07 06:01 | 25.19642 | 56.17875 | 34837 ft | 534 kts | 109° |
| 2026-05-07 06:01 | 25.18550 | 56.21785 | 34822 ft | 534 kts | 110° |
| 2026-05-07 06:02 | 25.16080 | 56.29524 | 34835 ft | 534 kts | 112° |
| 2026-05-07 06:02 | 25.13536 | 56.37235 | 34814 ft | 534 kts | 112° |
| 2026-05-07 06:03 | 25.11027 | 56.44947 | 34814 ft | 534 kts | 112° |
| 2026-05-07 06:03 | 25.08540 | 56.52669 | 34821 ft | 534 kts | 112° |
| 2026-05-07 06:04 | 25.05911 | 56.60322 | 34823 ft | 533 kts | 115° |
| 2026-05-07 06:04 | 25.03068 | 56.67796 | 34821 ft | 532 kts | 115° |
| 2026-05-07 06:05 | 25.00203 | 56.75329 | 34825 ft | 533 kts | 115° |
| 2026-05-07 06:05 | 24.97378 | 56.82873 | 34830 ft | 533 kts | 115° |
| 2026-05-07 06:06 | 24.94567 | 56.90429 | 34827 ft | 532 kts | 115° |
| 2026-05-07 06:06 | 24.91759 | 56.97970 | 34829 ft | 532 kts | 115° |
| 2026-05-07 06:07 | 24.88944 | 57.05508 | 34828 ft | 532 kts | 115° |
| 2026-05-07 06:07 | 24.86124 | 57.13044 | 34832 ft | 532 kts | 115° |
| 2026-05-07 06:08 | 24.83300 | 57.20577 | 34835 ft | 532 kts | 115° |
| 2026-05-07 06:08 | 24.80475 | 57.28098 | 34833 ft | 532 kts | 115° |
| 2026-05-07 06:09 | 24.77647 | 57.35612 | 34834 ft | 532 kts | 115° |
| 2026-05-07 06:09 | 24.74834 | 57.43077 | 34833 ft | 531 kts | 114° |
| 2026-05-07 06:10 | 24.72001 | 57.50580 | 34840 ft | 531 kts | 114° |
| 2026-05-07 06:10 | 24.69162 | 57.58086 | 34836 ft | 531 kts | 114° |
| 2026-05-07 06:11 | 24.66318 | 57.65589 | 34925 ft | 531 kts | 114° |
| 2026-05-07 06:11 | 24.64898 | 57.69331 | 35238 ft | 530 kts | 114° |
| 2026-05-07 06:11 | 24.63479 | 57.73065 | 35662 ft | 527 kts | 114° |
| 2026-05-07 06:11 | 24.62071 | 57.76767 | 36073 ft | 525 kts | 115° |
| 2026-05-07 06:12 | 24.61140 | 57.79214 | 36287 ft | 525 kts | 115° |
| 2026-05-07 06:12 | 24.59255 | 57.84161 | 36755 ft | 524 kts | 115° |
| 2026-05-07 06:12 | 24.58323 | 57.86607 | 36817 ft | 525 kts | 115° |
| 2026-05-07 06:13 | 24.55508 | 57.93988 | 36845 ft | 523 kts | 114° |
| 2026-05-07 06:13 | 24.52690 | 58.01368 | 36844 ft | 523 kts | 115° |
| 2026-05-07 06:14 | 24.49867 | 58.08743 | 36844 ft | 523 kts | 115° |
| 2026-05-07 06:14 | 24.47042 | 58.16111 | 36840 ft | 523 kts | 115° |
| 2026-05-07 06:15 | 24.44212 | 58.23476 | 36848 ft | 523 kts | 114° |
| 2026-05-07 06:15 | 24.41382 | 58.30833 | 36842 ft | 523 kts | 115° |
| 2026-05-07 06:16 | 24.38549 | 58.38182 | 36849 ft | 523 kts | 115° |
| 2026-05-07 06:16 | 24.35731 | 58.45481 | 36850 ft | 523 kts | 115° |
| 2026-05-07 06:17 | 24.32888 | 58.52832 | 36848 ft | 523 kts | 115° |
| 2026-05-07 06:17 | 24.30054 | 58.60163 | 36848 ft | 523 kts | 115° |
| 2026-05-07 06:18 | 24.27203 | 58.67506 | 36844 ft | 523 kts | 115° |
| 2026-05-07 06:18 | 24.24354 | 58.74828 | 36846 ft | 523 kts | 115° |
| 2026-05-07 06:19 | 24.21497 | 58.82162 | 36846 ft | 523 kts | 115° |
| 2026-05-07 06:19 | 24.18638 | 58.89494 | 36846 ft | 523 kts | 115° |
| 2026-05-07 06:20 | 24.15777 | 58.96817 | 36845 ft | 523 kts | 115° |
| 2026-05-07 06:20 | 24.12913 | 59.04138 | 36848 ft | 523 kts | 115° |
| 2026-05-07 06:21 | 24.10046 | 59.11453 | 36843 ft | 523 kts | 115° |
| 2026-05-07 06:21 | 24.07193 | 59.18722 | 36846 ft | 523 kts | 115° |
| 2026-05-07 06:22 | 24.04316 | 59.26038 | 36844 ft | 523 kts | 115° |
| 2026-05-07 06:22 | 24.00022 | 59.37009 | 36847 ft | 523 kts | 114° |
| 2026-05-07 06:23 | 23.97300 | 59.44389 | 36849 ft | 523 kts | 113° |
| 2026-05-07 06:23 | 23.94601 | 59.51770 | 36848 ft | 523 kts | 113° |
| 2026-05-07 06:24 | 23.91877 | 59.59145 | 36845 ft | 522 kts | 113° |
| 2026-05-07 06:24 | 23.89157 | 59.66457 | 36843 ft | 522 kts | 114° |
| 2026-05-07 06:25 | 23.86415 | 59.73807 | 36850 ft | 522 kts | 114° |
| 2026-05-07 06:25 | 23.83671 | 59.81158 | 36848 ft | 522 kts | 113° |
| 2026-05-07 06:26 | 23.80930 | 59.88502 | 36846 ft | 522 kts | 113° |
| 2026-05-07 06:26 | 23.78202 | 59.95787 | 36845 ft | 522 kts | 114° |
| 2026-05-07 06:27 | 23.75453 | 60.03119 | 36845 ft | 522 kts | 114° |
| 2026-05-07 06:27 | 23.72703 | 60.10441 | 36848 ft | 522 kts | 114° |
| 2026-05-07 06:28 | 23.69949 | 60.17766 | 36849 ft | 522 kts | 114° |
| 2026-05-07 06:28 | 23.67194 | 60.25079 | 36847 ft | 521 kts | 114° |
| 2026-05-07 06:29 | 23.64431 | 60.32402 | 36849 ft | 522 kts | 114° |
| 2026-05-07 06:29 | 23.61666 | 60.39717 | 36847 ft | 521 kts | 114° |
| 2026-05-07 06:30 | 23.58900 | 60.47025 | 36849 ft | 521 kts | 114° |
| 2026-05-07 06:30 | 23.56130 | 60.54329 | 36848 ft | 521 kts | 114° |
| 2026-05-07 06:31 | 23.53355 | 60.61635 | 36848 ft | 521 kts | 114° |
| 2026-05-07 06:31 | 23.50579 | 60.68931 | 36847 ft | 521 kts | 114° |
| 2026-05-07 06:32 | 23.47818 | 60.76177 | 36849 ft | 521 kts | 114° |
| 2026-05-07 06:32 | 23.45035 | 60.83468 | 36850 ft | 521 kts | 114° |
| 2026-05-07 06:33 | 23.42252 | 60.90748 | 36845 ft | 521 kts | 114° |
| 2026-05-07 06:33 | 23.39463 | 60.98031 | 36843 ft | 521 kts | 114° |
| 2026-05-07 06:34 | 23.36667 | 61.05318 | 36849 ft | 521 kts | 114° |
| 2026-05-07 06:34 | 23.33873 | 61.12590 | 36847 ft | 521 kts | 114° |
| 2026-05-07 06:35 | 23.31648 | 61.20082 | 36846 ft | 522 kts | 99° |
| 2026-05-07 06:35 | 23.30744 | 61.27919 | 36847 ft | 523 kts | 96° |
| 2026-05-07 06:36 | 23.30072 | 61.35799 | 36845 ft | 523 kts | 95° |
| 2026-05-07 06:36 | 23.29412 | 61.43688 | 36849 ft | 523 kts | 95° |
| 2026-05-07 06:37 | 23.28724 | 61.51557 | 36847 ft | 523 kts | 95° |
| 2026-05-07 06:37 | 23.28015 | 61.59439 | 36847 ft | 523 kts | 96° |
| 2026-05-07 06:38 | 23.27300 | 61.67324 | 36849 ft | 524 kts | 96° |
| 2026-05-07 06:38 | 23.26586 | 61.75148 | 36847 ft | 524 kts | 96° |
| 2026-05-07 06:39 | 23.25864 | 61.83037 | 36848 ft | 524 kts | 96° |
| 2026-05-07 06:39 | 23.25138 | 61.90919 | 36852 ft | 523 kts | 96° |
| 2026-05-07 06:40 | 23.24410 | 61.98792 | 36853 ft | 523 kts | 96° |
| 2026-05-07 06:40 | 23.23677 | 62.06671 | 36853 ft | 523 kts | 96° |
| 2026-05-07 06:41 | 23.22349 | 62.20824 | 36849 ft | 524 kts | 96° |
| 2026-05-07 06:41 | 23.19365 | 62.52162 | 36852 ft | 524 kts | 96° |
| 2026-05-07 06:42 | 23.16297 | 62.83699 | 36850 ft | 524 kts | 96° |
| 2026-05-07 06:42 | 23.13172 | 63.15171 | 36857 ft | 524 kts | 96° |
| 2026-05-07 06:43 | 23.09984 | 63.46626 | 36852 ft | 524 kts | 96° |
| 2026-05-07 06:43 | 23.06729 | 63.78115 | 36852 ft | 524 kts | 96° |
| 2026-05-07 06:44 | 23.03352 | 63.93407 | 36854 ft | 524 kts | 112° |
| 2026-05-07 06:44 | 22.97816 | 64.08020 | 36853 ft | 524 kts | 113° |
| 2026-05-07 06:44 | 22.86724 | 64.37250 | 36853 ft | 523 kts | 113° |
| 2026-05-07 06:45 | 22.75612 | 64.66412 | 36854 ft | 523 kts | 113° |
| 2026-05-07 06:45 | 22.64427 | 64.95578 | 36853 ft | 523 kts | 113° |
| 2026-05-07 06:46 | 22.53208 | 65.24649 | 36859 ft | 523 kts | 113° |
| 2026-05-07 06:46 | 22.41956 | 65.53622 | 36854 ft | 523 kts | 113° |
| 2026-05-07 06:47 | 22.30639 | 65.82583 | 36860 ft | 523 kts | 113° |
| 2026-05-07 06:47 | 22.19288 | 66.11454 | 36864 ft | 523 kts | 113° |
| 2026-05-07 06:48 | 22.07947 | 66.40124 | 36861 ft | 523 kts | 113° |
| 2026-05-07 06:48 | 21.96477 | 66.68954 | 36867 ft | 523 kts | 113° |
| 2026-05-07 06:49 | 21.84949 | 66.97759 | 36871 ft | 524 kts | 114° |
| 2026-05-07 06:49 | 21.73355 | 67.26556 | 36865 ft | 524 kts | 114° |
| 2026-05-07 06:50 | 21.61710 | 67.55311 | 36866 ft | 524 kts | 114° |
| 2026-05-07 06:50 | 21.50030 | 67.83984 | 36868 ft | 524 kts | 114° |
| 2026-05-07 06:51 | 21.38283 | 68.12654 | 36869 ft | 524 kts | 114° |
| 2026-05-07 06:51 | 21.26479 | 68.41299 | 36867 ft | 524 kts | 114° |
| 2026-05-07 06:52 | 21.14637 | 68.69875 | 36871 ft | 524 kts | 114° |
| 2026-05-07 06:52 | 21.02741 | 68.98418 | 36869 ft | 524 kts | 115° |
| 2026-05-07 06:53 | 20.92447 | 69.27589 | 36871 ft | 525 kts | 108° |
| 2026-05-07 06:53 | 20.83462 | 69.57325 | 36870 ft | 525 kts | 108° |
| 2026-05-07 06:54 | 20.74408 | 69.87008 | 36867 ft | 525 kts | 108° |
| 2026-05-07 06:54 | 20.65307 | 70.16642 | 36851 ft | 525 kts | 109° |
| 2026-05-07 06:55 | 20.56152 | 70.46254 | 36836 ft | 526 kts | 109° |
| 2026-05-07 06:55 | 20.46990 | 70.75689 | 36828 ft | 526 kts | 109° |
| 2026-05-07 06:56 | 20.37658 | 71.05476 | 36832 ft | 526 kts | 109° |
| 2026-05-07 06:56 | 20.28361 | 71.34956 | 36839 ft | 525 kts | 109° |
| 2026-05-07 06:57 | 20.19254 | 71.64316 | 36841 ft | 525 kts | 106° |
| 2026-05-07 06:57 | 20.11295 | 71.94220 | 36848 ft | 524 kts | 107° |
| 2026-05-07 06:58 | 20.03154 | 72.24014 | 36856 ft | 524 kts | 107° |
| 2026-05-07 06:58 | 19.94986 | 72.53713 | 36861 ft | 523 kts | 107° |
| 2026-05-07 06:59 | 19.86805 | 72.83249 | 36865 ft | 524 kts | 107° |
| 2026-05-07 06:59 | 19.78538 | 73.12890 | 36867 ft | 523 kts | 107° |
| 2026-05-07 07:00 | 19.70225 | 73.42486 | 36872 ft | 523 kts | 107° |
| 2026-05-07 07:00 | 19.63571 | 73.67342 | 36892 ft | 522 kts | 97° |
| 2026-05-07 07:01 | 19.62302 | 74.03139 | 36892 ft | 523 kts | 92° |
| 2026-05-07 07:01 | 19.61295 | 74.34011 | 36941 ft | 524 kts | 92° |
| 2026-05-07 07:02 | 19.59830 | 74.64853 | 36886 ft | 525 kts | 97° |
| 2026-05-07 07:02 | 19.56626 | 74.95666 | 36869 ft | 526 kts | 96° |
| 2026-05-07 07:03 | 19.54090 | 75.21340 | 36914 ft | 527 kts | 96° |
| 2026-05-07 07:03 | 19.50985 | 75.52215 | 36903 ft | 528 kts | 96° |
| 2026-05-07 07:04 | 19.47875 | 75.83225 | 36904 ft | 528 kts | 96° |
| 2026-05-07 07:04 | 19.44753 | 76.14138 | 36893 ft | 528 kts | 96° |
| 2026-05-07 07:05 | 19.41573 | 76.45105 | 36896 ft | 528 kts | 96° |
| 2026-05-07 07:05 | 19.38349 | 76.75972 | 36894 ft | 528 kts | 96° |
| 2026-05-07 07:06 | 19.35332 | 77.06960 | 36907 ft | 528 kts | 96° |
| 2026-05-07 07:06 | 19.32353 | 77.37894 | 36923 ft | 528 kts | 96° |
| 2026-05-07 07:07 | 19.29318 | 77.68836 | 36938 ft | 529 kts | 96° |
| 2026-05-07 07:07 | 19.26230 | 77.99779 | 36948 ft | 529 kts | 96° |
| 2026-05-07 07:08 | 19.19960 | 78.30039 | 36950 ft | 527 kts | 108° |
| 2026-05-07 07:08 | 19.11387 | 78.59730 | 36940 ft | 526 kts | 108° |
| 2026-05-07 07:09 | 19.02826 | 78.89310 | 36925 ft | 526 kts | 108° |
| 2026-05-07 07:09 | 18.94279 | 79.18646 | 36925 ft | 526 kts | 108° |
| 2026-05-07 07:10 | 18.85571 | 79.48345 | 36925 ft | 526 kts | 109° |
| 2026-05-07 07:10 | 18.76873 | 79.77820 | 36925 ft | 526 kts | 109° |
| 2026-05-07 07:11 | 18.68205 | 80.07007 | 36925 ft | 525 kts | 109° |
| 2026-05-07 07:11 | 18.59365 | 80.36588 | 36931 ft | 525 kts | 109° |
| 2026-05-07 07:12 | 18.50531 | 80.65739 | 36933 ft | 524 kts | 110° |
| 2026-05-07 07:12 | 18.46998 | 80.76607 | 36932 ft | 523 kts | 111° |
| 2026-05-07 07:13 | 18.44655 | 80.83866 | 36930 ft | 524 kts | 110° |
| 2026-05-07 07:13 | 18.42323 | 80.91127 | 36928 ft | 524 kts | 110° |
| 2026-05-07 07:14 | 18.39989 | 80.98394 | 36931 ft | 524 kts | 110° |
| 2026-05-07 07:14 | 18.37648 | 81.05671 | 36925 ft | 524 kts | 110° |
| 2026-05-07 07:15 | 18.35321 | 81.12885 | 36920 ft | 524 kts | 111° |
| 2026-05-07 07:15 | 18.32980 | 81.20136 | 36920 ft | 524 kts | 111° |
| 2026-05-07 07:16 | 18.30630 | 81.27404 | 36914 ft | 524 kts | 111° |
| 2026-05-07 07:16 | 18.28283 | 81.34652 | 36916 ft | 524 kts | 111° |
| 2026-05-07 07:17 | 18.25931 | 81.41906 | 36911 ft | 524 kts | 111° |
| 2026-05-07 07:17 | 18.23576 | 81.49158 | 36909 ft | 524 kts | 111° |
| 2026-05-07 07:18 | 18.21219 | 81.56405 | 36904 ft | 524 kts | 111° |
| 2026-05-07 07:18 | 18.18864 | 81.63638 | 36900 ft | 523 kts | 111° |
| 2026-05-07 07:19 | 18.09815 | 81.91327 | 36903 ft | 523 kts | 111° |
| 2026-05-07 07:19 | 18.00543 | 82.20293 | 36921 ft | 522 kts | 110° |
| 2026-05-07 07:20 | 17.91358 | 82.49160 | 36925 ft | 520 kts | 111° |
| 2026-05-07 07:20 | 17.82223 | 82.77704 | 36896 ft | 518 kts | 111° |
| 2026-05-07 07:21 | 17.72946 | 83.06528 | 36862 ft | 518 kts | 111° |
| 2026-05-07 07:21 | 17.64239 | 83.35074 | 36861 ft | 519 kts | 106° |
| 2026-05-07 07:22 | 17.57047 | 83.64337 | 36868 ft | 518 kts | 107° |
| 2026-05-07 07:22 | 17.49651 | 83.93459 | 36865 ft | 517 kts | 107° |
| 2026-05-07 07:23 | 17.42543 | 84.22666 | 36864 ft | 517 kts | 106° |
| 2026-05-07 07:23 | 17.35390 | 84.51812 | 36864 ft | 516 kts | 106° |
| 2026-05-07 07:24 | 17.28541 | 84.81033 | 36863 ft | 516 kts | 106° |
| 2026-05-07 07:24 | 17.21643 | 85.10171 | 36863 ft | 515 kts | 106° |
| 2026-05-07 07:25 | 17.14791 | 85.39195 | 38076 ft | 511 kts | 105° |
| 2026-05-07 07:25 | 17.11503 | 85.53612 | 38859 ft | 507 kts | 105° |
| 2026-05-07 07:26 | 17.04893 | 85.82291 | 38863 ft | 507 kts | 105° |
| 2026-05-07 07:26 | 16.98290 | 86.10730 | 38864 ft | 506 kts | 105° |
| 2026-05-07 07:27 | 16.93282 | 86.32177 | 38862 ft | 505 kts | 106° |
| 2026-05-07 07:27 | 16.91622 | 86.39265 | 38860 ft | 505 kts | 106° |
| 2026-05-07 07:28 | 16.89949 | 86.46391 | 38862 ft | 505 kts | 106° |
| 2026-05-07 07:28 | 16.88273 | 86.53522 | 38860 ft | 505 kts | 106° |
| 2026-05-07 07:29 | 16.86595 | 86.60650 | 38860 ft | 505 kts | 106° |
| 2026-05-07 07:29 | 16.84914 | 86.67774 | 38861 ft | 505 kts | 106° |
| 2026-05-07 07:30 | 16.83231 | 86.74899 | 38861 ft | 505 kts | 106° |
| 2026-05-07 07:30 | 16.81546 | 86.82020 | 38861 ft | 505 kts | 106° |
| 2026-05-07 07:31 | 16.79861 | 86.89132 | 38859 ft | 505 kts | 106° |
| 2026-05-07 07:31 | 16.78183 | 86.96199 | 38858 ft | 505 kts | 106° |
| 2026-05-07 07:32 | 16.76495 | 87.03298 | 38858 ft | 504 kts | 106° |
| 2026-05-07 07:32 | 16.74800 | 87.10415 | 38855 ft | 504 kts | 106° |
| 2026-05-07 07:33 | 16.73110 | 87.17518 | 38862 ft | 505 kts | 106° |
| 2026-05-07 07:33 | 16.71445 | 87.24637 | 38857 ft | 505 kts | 106° |
| 2026-05-07 07:34 | 16.69785 | 87.31749 | 38858 ft | 505 kts | 106° |
| 2026-05-07 07:34 | 16.68117 | 87.38870 | 38859 ft | 506 kts | 106° |
| 2026-05-07 07:35 | 16.66442 | 87.45996 | 38863 ft | 506 kts | 106° |
| 2026-05-07 07:35 | 16.64765 | 87.53122 | 38860 ft | 506 kts | 106° |
| 2026-05-07 07:36 | 16.63094 | 87.60208 | 38858 ft | 506 kts | 106° |
| 2026-05-07 07:36 | 16.61410 | 87.67340 | 38860 ft | 506 kts | 106° |
| 2026-05-07 07:37 | 16.59727 | 87.74456 | 38862 ft | 506 kts | 106° |
| 2026-05-07 07:37 | 16.58039 | 87.81583 | 38862 ft | 505 kts | 106° |
| 2026-05-07 07:38 | 16.56352 | 87.88692 | 38857 ft | 505 kts | 106° |
| 2026-05-07 07:38 | 16.54664 | 87.95796 | 38860 ft | 505 kts | 106° |
| 2026-05-07 07:39 | 16.52971 | 88.02908 | 38857 ft | 505 kts | 106° |
| 2026-05-07 07:39 | 16.51286 | 88.09972 | 38859 ft | 506 kts | 106° |
| 2026-05-07 07:40 | 16.49586 | 88.17091 | 38858 ft | 507 kts | 106° |
| 2026-05-07 07:40 | 16.47880 | 88.24225 | 38860 ft | 508 kts | 106° |
| 2026-05-07 07:41 | 16.46168 | 88.31370 | 38858 ft | 508 kts | 106° |
| 2026-05-07 07:41 | 16.44452 | 88.38520 | 38860 ft | 509 kts | 106° |
| 2026-05-07 07:42 | 16.42734 | 88.45668 | 38859 ft | 508 kts | 106° |
| 2026-05-07 07:42 | 16.41018 | 88.52801 | 38862 ft | 508 kts | 106° |
| 2026-05-07 07:43 | 16.39296 | 88.59942 | 38854 ft | 507 kts | 106° |
| 2026-05-07 07:43 | 16.37576 | 88.67064 | 38856 ft | 507 kts | 106° |
| 2026-05-07 07:44 | 16.35867 | 88.74133 | 38855 ft | 506 kts | 106° |
| 2026-05-07 07:44 | 16.34147 | 88.81236 | 38856 ft | 506 kts | 106° |
| 2026-05-07 07:45 | 16.32422 | 88.88346 | 38856 ft | 505 kts | 106° |
| 2026-05-07 07:45 | 16.30698 | 88.95441 | 38854 ft | 505 kts | 106° |
| 2026-05-07 07:46 | 16.28972 | 89.02533 | 38855 ft | 505 kts | 106° |
| 2026-05-07 07:46 | 16.27244 | 89.09624 | 38855 ft | 505 kts | 106° |
| 2026-05-07 07:47 | 16.25553 | 89.16728 | 38855 ft | 505 kts | 105° |
| 2026-05-07 07:47 | 16.23885 | 89.23832 | 38859 ft | 505 kts | 105° |
| 2026-05-07 07:48 | 16.22209 | 89.30943 | 38859 ft | 505 kts | 105° |
| 2026-05-07 07:48 | 16.20527 | 89.38047 | 38856 ft | 506 kts | 105° |
| 2026-05-07 07:49 | 16.18852 | 89.45097 | 38855 ft | 506 kts | 105° |
| 2026-05-07 07:49 | 16.17438 | 89.51042 | 38857 ft | 506 kts | 105° |
| 2026-05-07 07:50 | 16.15753 | 89.58114 | 38855 ft | 506 kts | 106° |
| 2026-05-07 07:50 | 16.14061 | 89.65210 | 38856 ft | 506 kts | 106° |
| 2026-05-07 07:51 | 16.12360 | 89.72326 | 38853 ft | 506 kts | 106° |
| 2026-05-07 07:51 | 16.10658 | 89.79440 | 38854 ft | 507 kts | 106° |
| 2026-05-07 07:52 | 16.08954 | 89.86551 | 38854 ft | 507 kts | 106° |
| 2026-05-07 07:52 | 16.07247 | 89.93664 | 38854 ft | 507 kts | 106° |
| 2026-05-07 07:53 | 16.05532 | 90.00794 | 38855 ft | 507 kts | 106° |
| 2026-05-07 07:53 | 16.03819 | 90.07910 | 38851 ft | 507 kts | 106° |
| 2026-05-07 07:54 | 16.02104 | 90.15023 | 38856 ft | 507 kts | 106° |
| 2026-05-07 07:54 | 16.00414 | 90.22113 | 38850 ft | 508 kts | 105° |
| 2026-05-07 07:55 | 15.98766 | 90.29249 | 38852 ft | 508 kts | 105° |
| 2026-05-07 07:55 | 15.97120 | 90.36384 | 38852 ft | 508 kts | 105° |
| 2026-05-07 07:56 | 15.95461 | 90.43522 | 38848 ft | 508 kts | 105° |
| 2026-05-07 07:56 | 15.93795 | 90.50656 | 38854 ft | 508 kts | 105° |
| 2026-05-07 07:57 | 15.92129 | 90.57782 | 38850 ft | 507 kts | 105° |
| 2026-05-07 07:57 | 15.90460 | 90.64908 | 38850 ft | 507 kts | 105° |
| 2026-05-07 07:58 | 15.88789 | 90.72029 | 38853 ft | 507 kts | 105° |
| 2026-05-07 07:58 | 15.87116 | 90.79155 | 38851 ft | 507 kts | 105° |
| 2026-05-07 07:59 | 15.85443 | 90.86266 | 38853 ft | 507 kts | 105° |
| 2026-05-07 07:59 | 15.83777 | 90.93335 | 38849 ft | 507 kts | 105° |
| 2026-05-07 08:00 | 15.82097 | 91.00452 | 38851 ft | 507 kts | 105° |
| 2026-05-07 08:00 | 15.80418 | 91.07558 | 38850 ft | 506 kts | 105° |
| 2026-05-07 08:01 | 15.78738 | 91.14653 | 38846 ft | 506 kts | 105° |
| 2026-05-07 08:01 | 15.77055 | 91.21753 | 38849 ft | 506 kts | 105° |
| 2026-05-07 08:02 | 15.75370 | 91.28849 | 38844 ft | 506 kts | 105° |
| 2026-05-07 08:02 | 15.73684 | 91.35936 | 38846 ft | 506 kts | 105° |
| 2026-05-07 08:03 | 15.71995 | 91.43028 | 38842 ft | 506 kts | 105° |
| 2026-05-07 08:03 | 15.70307 | 91.50108 | 38846 ft | 506 kts | 105° |
| 2026-05-07 08:04 | 15.68613 | 91.57198 | 38848 ft | 506 kts | 105° |
| 2026-05-07 08:04 | 15.66921 | 91.64268 | 38843 ft | 505 kts | 105° |
| 2026-05-07 08:05 | 15.65226 | 91.71342 | 38843 ft | 505 kts | 105° |
| 2026-05-07 08:05 | 15.63526 | 91.78427 | 38846 ft | 506 kts | 105° |
| 2026-05-07 08:06 | 15.61824 | 91.85509 | 38840 ft | 505 kts | 105° |
| 2026-05-07 08:06 | 15.60133 | 91.92532 | 38844 ft | 505 kts | 105° |
| 2026-05-07 08:07 | 15.58429 | 91.99602 | 38845 ft | 505 kts | 105° |
| 2026-05-07 08:07 | 15.56710 | 92.06681 | 38842 ft | 505 kts | 105° |
| 2026-05-07 08:08 | 15.54973 | 92.13748 | 38843 ft | 505 kts | 105° |
| 2026-05-07 08:08 | 15.53233 | 92.20823 | 38843 ft | 505 kts | 105° |
| 2026-05-07 08:09 | 15.51509 | 92.27834 | 38846 ft | 505 kts | 105° |
| 2026-05-07 08:09 | 15.49775 | 92.34882 | 38846 ft | 504 kts | 105° |
| 2026-05-07 08:10 | 15.48040 | 92.41924 | 38842 ft | 504 kts | 105° |
| 2026-05-07 08:10 | 15.46302 | 92.48967 | 38843 ft | 504 kts | 105° |
| 2026-05-07 08:11 | 15.44564 | 92.56003 | 38838 ft | 503 kts | 105° |
| 2026-05-07 08:11 | 15.42823 | 92.63040 | 38840 ft | 503 kts | 105° |
| 2026-05-07 08:12 | 15.41184 | 92.70036 | 38843 ft | 503 kts | 104° |
| 2026-05-07 08:12 | 15.39628 | 92.77102 | 38843 ft | 503 kts | 103° |
| 2026-05-07 08:13 | 15.38062 | 92.84171 | 38842 ft | 502 kts | 104° |
| 2026-05-07 08:13 | 15.36477 | 92.91224 | 38841 ft | 502 kts | 104° |
| 2026-05-07 08:14 | 15.34886 | 92.98258 | 38841 ft | 502 kts | 104° |
| 2026-05-07 08:14 | 15.33289 | 93.05302 | 38841 ft | 502 kts | 104° |
| 2026-05-07 08:15 | 15.31697 | 93.12323 | 38838 ft | 501 kts | 104° |
| 2026-05-07 08:15 | 15.30099 | 93.19357 | 38841 ft | 501 kts | 104° |
| 2026-05-07 08:16 | 15.28499 | 93.26391 | 38838 ft | 501 kts | 104° |
| 2026-05-07 08:16 | 15.26902 | 93.33404 | 38836 ft | 501 kts | 104° |
| 2026-05-07 08:17 | 15.25298 | 93.40434 | 38833 ft | 501 kts | 104° |
| 2026-05-07 08:17 | 15.23706 | 93.47400 | 38834 ft | 500 kts | 104° |
| 2026-05-07 08:18 | 15.22102 | 93.54407 | 38831 ft | 500 kts | 104° |
| 2026-05-07 08:18 | 15.20496 | 93.61417 | 38837 ft | 500 kts | 104° |
| 2026-05-07 08:19 | 15.18888 | 93.68419 | 38833 ft | 500 kts | 104° |
| 2026-05-07 08:19 | 15.17277 | 93.75428 | 38832 ft | 500 kts | 104° |
| 2026-05-07 08:20 | 15.15668 | 93.82418 | 38834 ft | 500 kts | 104° |
| 2026-05-07 08:20 | 15.14052 | 93.89426 | 38833 ft | 500 kts | 104° |
| 2026-05-07 08:21 | 15.12438 | 93.96417 | 38831 ft | 499 kts | 104° |
| 2026-05-07 08:21 | 15.10822 | 94.03406 | 38833 ft | 499 kts | 104° |
| 2026-05-07 08:22 | 15.09203 | 94.10396 | 38830 ft | 499 kts | 104° |
| 2026-05-07 08:22 | 15.07585 | 94.17372 | 38831 ft | 499 kts | 104° |
| 2026-05-07 08:23 | 15.05978 | 94.24296 | 38825 ft | 498 kts | 104° |
| 2026-05-07 08:23 | 15.04354 | 94.31273 | 38829 ft | 498 kts | 104° |
| 2026-05-07 08:24 | 15.02730 | 94.38241 | 38830 ft | 498 kts | 104° |
| 2026-05-07 08:24 | 15.01105 | 94.45207 | 38829 ft | 498 kts | 104° |
| 2026-05-07 08:25 | 14.99478 | 94.52171 | 38823 ft | 498 kts | 104° |
| 2026-05-07 08:25 | 14.97848 | 94.59137 | 38821 ft | 498 kts | 104° |
| 2026-05-07 08:26 | 14.95399 | 94.69586 | 38823 ft | 498 kts | 104° |
| 2026-05-07 08:26 | 14.93765 | 94.76543 | 38823 ft | 498 kts | 104° |
| 2026-05-07 08:27 | 14.92130 | 94.83498 | 38823 ft | 498 kts | 104° |
| 2026-05-07 08:27 | 14.90492 | 94.90452 | 38825 ft | 498 kts | 104° |
| 2026-05-07 08:28 | 14.88853 | 94.97402 | 38819 ft | 498 kts | 104° |
| 2026-05-07 08:28 | 14.87213 | 95.04345 | 38823 ft | 498 kts | 104° |
| 2026-05-07 08:29 | 14.85568 | 95.11300 | 38823 ft | 498 kts | 104° |
| 2026-05-07 08:29 | 14.83922 | 95.18249 | 38819 ft | 497 kts | 104° |
| 2026-05-07 08:30 | 14.82276 | 95.25189 | 38817 ft | 497 kts | 104° |
| 2026-05-07 08:30 | 14.80638 | 95.32086 | 38817 ft | 497 kts | 104° |
| 2026-05-07 08:31 | 14.75411 | 95.54030 | 38820 ft | 497 kts | 104° |
| 2026-05-07 08:31 | 14.68766 | 95.81788 | 38819 ft | 497 kts | 104° |
| 2026-05-07 08:32 | 14.62092 | 96.09507 | 38817 ft | 497 kts | 104° |
| 2026-05-07 08:32 | 14.55385 | 96.37218 | 38815 ft | 497 kts | 104° |
| 2026-05-07 08:33 | 14.48674 | 96.64791 | 38814 ft | 493 kts | 104° |
| 2026-05-07 08:33 | 14.41981 | 96.92145 | 38812 ft | 491 kts | 104° |
| 2026-05-07 08:34 | 14.35296 | 97.19318 | 38809 ft | 491 kts | 104° |
| 2026-05-07 08:34 | 14.28551 | 97.46594 | 38810 ft | 491 kts | 104° |
| 2026-05-07 08:35 | 14.22869 | 97.69462 | 38806 ft | 491 kts | 104° |
| 2026-05-07 08:35 | 14.14955 | 98.01152 | 38805 ft | 492 kts | 103° |
| 2026-05-07 08:36 | 14.11096 | 98.24042 | 38812 ft | 490 kts | 79° |
| 2026-05-07 08:36 | 14.18158 | 98.51204 | 38820 ft | 492 kts | 73° |
| 2026-05-07 08:37 | 14.25347 | 98.78507 | 38810 ft | 494 kts | 73° |
| 2026-05-07 08:37 | 14.28700 | 99.06232 | 38791 ft | 499 kts | 104° |
| 2026-05-07 08:38 | 14.21644 | 99.33976 | 38780 ft | 501 kts | 104° |
| 2026-05-07 08:38 | 14.18450 | 99.47117 | 38290 ft | 495 kts | 96° |
| 2026-05-07 08:39 | 14.18433 | 99.50665 | 37343 ft | 498 kts | 81° |
| 2026-05-07 08:39 | 14.19303 | 99.54121 | 36431 ft | 501 kts | 68° |
| 2026-05-07 08:39 | 14.20668 | 99.57425 | 35601 ft | 503 kts | 65° |
| 2026-05-07 08:39 | 14.22088 | 99.60742 | 34791 ft | 506 kts | 66° |
| 2026-05-07 08:40 | 14.23488 | 99.64073 | 33985 ft | 508 kts | 66° |
| 2026-05-07 08:40 | 14.24875 | 99.67430 | 33094 ft | 510 kts | 67° |
| 2026-05-07 08:40 | 14.26255 | 99.70801 | 32231 ft | 510 kts | 67° |
| 2026-05-07 08:40 | 14.27626 | 99.74169 | 31348 ft | 510 kts | 67° |
| 2026-05-07 08:41 | 14.28997 | 99.77548 | 30476 ft | 510 kts | 67° |
| 2026-05-07 08:41 | 14.30362 | 99.80920 | 29511 ft | 511 kts | 67° |
| 2026-05-07 08:41 | 14.31718 | 99.84270 | 28514 ft | 511 kts | 68° |
| 2026-05-07 08:41 | 14.33082 | 99.87646 | 27642 ft | 508 kts | 68° |
| 2026-05-07 08:42 | 14.34428 | 99.90977 | 27187 ft | 498 kts | 68° |
| 2026-05-07 08:42 | 14.35741 | 99.94230 | 26877 ft | 484 kts | 68° |
| 2026-05-07 08:42 | 14.37017 | 99.97393 | 26604 ft | 471 kts | 68° |
| 2026-05-07 08:42 | 14.38258 | 100.00471 | 26351 ft | 459 kts | 68° |
| 2026-05-07 08:43 | 14.39455 | 100.03472 | 26111 ft | 447 kts | 69° |
| 2026-05-07 08:43 | 14.40162 | 100.06539 | 25854 ft | 435 kts | 85° |
| 2026-05-07 08:43 | 14.39978 | 100.09604 | 25568 ft | 426 kts | 102° |
| 2026-05-07 08:43 | 14.39186 | 100.12531 | 25154 ft | 421 kts | 107° |
| 2026-05-07 08:44 | 14.38329 | 100.15401 | 24693 ft | 417 kts | 106° |
| 2026-05-07 08:44 | 14.37522 | 100.18259 | 24252 ft | 413 kts | 105° |
| 2026-05-07 08:44 | 14.36758 | 100.21097 | 23799 ft | 410 kts | 105° |
| 2026-05-07 08:44 | 14.36022 | 100.23923 | 23357 ft | 406 kts | 104° |
| 2026-05-07 08:45 | 14.35304 | 100.26725 | 22814 ft | 402 kts | 104° |
| 2026-05-07 08:45 | 14.34600 | 100.29504 | 22276 ft | 400 kts | 104° |
| 2026-05-07 08:45 | 14.33902 | 100.32274 | 21725 ft | 397 kts | 104° |
| 2026-05-07 08:45 | 14.33213 | 100.35017 | 21191 ft | 394 kts | 104° |
| 2026-05-07 08:46 | 14.32530 | 100.37745 | 20693 ft | 391 kts | 104° |
| 2026-05-07 08:46 | 14.31855 | 100.40426 | 20450 ft | 381 kts | 104° |
| 2026-05-07 08:46 | 14.31199 | 100.43032 | 20253 ft | 370 kts | 104° |
| 2026-05-07 08:46 | 14.30565 | 100.45554 | 20039 ft | 354 kts | 104° |
| 2026-05-07 08:47 | 14.29960 | 100.47964 | 19347 ft | 344 kts | 104° |
| 2026-05-07 08:47 | 14.29364 | 100.50345 | 18603 ft | 341 kts | 104° |
| 2026-05-07 08:47 | 14.28772 | 100.52696 | 17742 ft | 337 kts | 104° |
| 2026-05-07 08:47 | 14.28185 | 100.55021 | 16829 ft | 333 kts | 104° |
| 2026-05-07 08:48 | 14.27610 | 100.57304 | 16078 ft | 325 kts | 104° |
| 2026-05-07 08:48 | 14.27047 | 100.59535 | 15307 ft | 318 kts | 104° |
| 2026-05-07 08:48 | 14.26495 | 100.61727 | 14530 ft | 314 kts | 104° |
| 2026-05-07 08:48 | 14.25789 | 100.63830 | 13740 ft | 310 kts | 117° |
| 2026-05-07 08:49 | 14.24452 | 100.65510 | 12888 ft | 308 kts | 141° |
| 2026-05-07 08:49 | 14.22531 | 100.66448 | 12027 ft | 307 kts | 167° |
| 2026-05-07 08:49 | 14.20412 | 100.66456 | 11176 ft | 307 kts | 192° |
| 2026-05-07 08:49 | 14.18442 | 100.65645 | 10376 ft | 304 kts | 205° |
| 2026-05-07 08:50 | 14.16461 | 100.64884 | 9562 ft | 301 kts | 195° |
| 2026-05-07 08:50 | 14.14453 | 100.64314 | 8734 ft | 297 kts | 193° |
| 2026-05-07 08:50 | 14.12467 | 100.63782 | 7958 ft | 293 kts | 193° |
| 2026-05-07 08:50 | 14.10506 | 100.63274 | 7255 ft | 286 kts | 191° |
| 2026-05-07 08:51 | 14.08602 | 100.63232 | 6897 ft | 265 kts | 166° |
| 2026-05-07 08:51 | 14.07002 | 100.63997 | 6425 ft | 251 kts | 140° |
| 2026-05-07 08:51 | 14.05767 | 100.65233 | 5899 ft | 245 kts | 130° |
| 2026-05-07 08:51 | 14.04653 | 100.66538 | 5318 ft | 242 kts | 129° |
| 2026-05-07 08:52 | 14.03566 | 100.67852 | 4720 ft | 240 kts | 129° |
| 2026-05-07 08:52 | 14.02495 | 100.69164 | 4119 ft | 239 kts | 129° |
| 2026-05-07 08:52 | 14.01438 | 100.70479 | 3539 ft | 237 kts | 129° |
| 2026-05-07 08:52 | 14.00406 | 100.71784 | 3117 ft | 234 kts | 129° |
| 2026-05-07 08:53 | 13.99386 | 100.73091 | 2982 ft | 235 kts | 129° |
| 2026-05-07 08:53 | 13.98367 | 100.74405 | 2965 ft | 235 kts | 129° |
| 2026-05-07 08:53 | 13.97349 | 100.75718 | 2969 ft | 234 kts | 129° |
| 2026-05-07 08:53 | 13.96217 | 100.76895 | 2981 ft | 232 kts | 146° |
| 2026-05-07 08:54 | 13.94776 | 100.77566 | 2971 ft | 232 kts | 162° |
| 2026-05-07 08:54 | 13.93220 | 100.78053 | 2966 ft | 230 kts | 164° |
| 2026-05-07 08:54 | 13.91727 | 100.78495 | 2969 ft | 218 kts | 164° |
| 2026-05-07 08:54 | 13.90278 | 100.78924 | 2973 ft | 217 kts | 164° |
| 2026-05-07 08:55 | 13.88829 | 100.79351 | 2972 ft | 217 kts | 164° |
| 2026-05-07 08:55 | 13.87394 | 100.79777 | 2966 ft | 218 kts | 164° |
| 2026-05-07 08:55 | 13.85910 | 100.80193 | 2985 ft | 218 kts | 168° |
| 2026-05-07 08:55 | 13.84367 | 100.80159 | 2934 ft | 221 kts | 190° |
| 2026-05-07 08:56 | 13.82959 | 100.79764 | 2720 ft | 200 kts | 198° |
| 2026-05-07 08:56 | 13.81693 | 100.79389 | 2472 ft | 183 kts | 193° |
| 2026-05-07 08:56 | 13.80497 | 100.79094 | 2240 ft | 166 kts | 193° |
| 2026-05-07 08:56 | 13.79434 | 100.78814 | 2019 ft | 153 kts | 193° |
| 2026-05-07 08:57 | 13.78446 | 100.78551 | 1829 ft | 141 kts | 194° |
| 2026-05-07 08:57 | 13.77516 | 100.78306 | 1651 ft | 136 kts | 194° |
| 2026-05-07 08:57 | 13.76622 | 100.78069 | 1473 ft | 131 kts | 193° |
| 2026-05-07 08:57 | 13.75740 | 100.77838 | 1338 ft | 132 kts | 194° |
| 2026-05-07 08:58 | 13.74850 | 100.77601 | 1148 ft | 130 kts | 194° |
| 2026-05-07 08:58 | 13.74005 | 100.77379 | 992 ft | 130 kts | 195° |
| 2026-05-07 08:58 | 13.73131 | 100.77146 | 826 ft | 129 kts | 193° |
| 2026-05-07 08:58 | 13.72263 | 100.76918 | 685 ft | 132 kts | 193° |
| 2026-05-07 08:59 | 13.71349 | 100.76677 | 494 ft | 135 kts | 194° |
| 2026-05-07 08:59 | 13.70463 | 100.76442 | 315 ft | 129 kts | 192° |
| 2026-05-07 08:59 | 13.69597 | 100.76214 | 150 ft | 129 kts | 192° |
| 2026-05-07 08:59 | 13.68741 | 100.75988 | 34 ft | 122 kts | 194° |
| 2026-05-07 09:00 | 13.68035 | 100.75805 | 18 ft | 70 kts | 194° |
| 2026-05-07 09:00 | 13.67790 | 100.75740 | 17 ft | 24 kts | 194° |
| 2026-05-07 09:00 | 13.67627 | 100.75687 | 17 ft | 25 kts | 207° |
| 2026-05-07 09:00 | 13.67514 | 100.75601 | 18 ft | 0 kts | 220° |
| 2026-05-07 09:01 | 13.67508 | 100.75596 | 18 ft | 2 kts | 220° |
| 2026-05-07 09:01 | 13.67489 | 100.75578 | 19 ft | 5 kts | 224° |
| 2026-05-07 09:01 | 13.67459 | 100.75545 | 19 ft | 7 kts | 233° |
| 2026-05-07 09:01 | 13.67455 | 100.75490 | 19 ft | 9 kts | 295° |
| 2026-05-07 09:02 | 13.67510 | 100.75476 | 19 ft | 10 kts | 10° |
| 2026-05-07 09:02 | 13.67588 | 100.75498 | 19 ft | 13 kts | 15° |
| 2026-05-07 09:02 | 13.67690 | 100.75527 | 19 ft | 17 kts | 15° |
| 2026-05-07 09:02 | 13.67815 | 100.75562 | 19 ft | 20 kts | 14° |
| 2026-05-07 09:03 | 13.67963 | 100.75601 | 19 ft | 24 kts | 14° |
| 2026-05-07 09:03 | 13.68132 | 100.75644 | 19 ft | 27 kts | 13° |
| 2026-05-07 09:03 | 13.68318 | 100.75689 | 19 ft | 29 kts | 14° |
| 2026-05-07 09:03 | 13.68427 | 100.75703 | 19 ft | 5 kts | 335° |
| 2026-05-07 09:04 | 13.68450 | 100.75669 | 19 ft | 7 kts | 294° |
| 2026-05-07 09:04 | 13.68468 | 100.75606 | 19 ft | 11 kts | 285° |
| 2026-05-07 09:04 | 13.68491 | 100.75515 | 19 ft | 15 kts | 283° |
| 2026-05-07 09:04 | 13.68559 | 100.75455 | 19 ft | 15 kts | 4° |
| 2026-05-07 09:05 | 13.68619 | 100.75449 | 19 ft | 5 kts | 311° |
| 2026-05-07 09:05 | 13.68634 | 100.75402 | 19 ft | 9 kts | 283° |
| 2026-05-07 09:05 | 13.68640 | 100.75374 | 19 ft | 0 kts | 283° |
| 2026-05-07 09:05 | 13.68640 | 100.75376 | 19 ft | 1 kts | 283° |
| 2026-05-07 09:06 | 13.68639 | 100.75378 | 19 ft | 0 kts | 283° |
| 2026-05-07 09:06 | 13.68639 | 100.75379 | 19 ft | 0 kts | 283° |